sensor_id;sensor_type;location;lat;lon;timestamp;pressure;altitude;pressure_sealevel;temperature;humidity
66887;BME280;67239;51.680;5.976;2023-06-01T00:01:38;102157.50;;;12.26;79.85
66887;BME280;67239;51.680;5.976;2023-06-01T00:04:24;102156.72;;;12.20;80.03
66887;BME280;67239;51.680;5.976;2023-06-01T00:07:09;102147.13;;;12.14;80.30
66887;BME280;67239;51.680;5.976;2023-06-01T00:09:55;102150.72;;;12.08;80.72
66887;BME280;67239;51.680;5.976;2023-06-01T00:12:40;102149.13;;;12.00;80.12
66887;BME280;67239;51.680;5.976;2023-06-01T00:15:25;102156.19;;;11.98;81.03
66887;BME280;67239;51.680;5.976;2023-06-01T00:18:10;102149.22;;;11.89;81.20
66887;BME280;67239;51.680;5.976;2023-06-01T00:20:58;102152.00;;;11.79;81.86
66887;BME280;67239;51.680;5.976;2023-06-01T00:23:45;102153.00;;;11.71;81.73
66887;BME280;67239;51.680;5.976;2023-06-01T00:26:31;102156.56;;;11.70;81.95
66887;BME280;67239;51.680;5.976;2023-06-01T00:29:17;102159.28;;;11.63;82.29
66887;BME280;67239;51.680;5.976;2023-06-01T00:32:02;102156.69;;;11.59;82.28
66887;BME280;67239;51.680;5.976;2023-06-01T00:34:48;102154.13;;;11.54;82.20
66887;BME280;67239;51.680;5.976;2023-06-01T00:37:33;102152.47;;;11.47;82.64
66887;BME280;67239;51.680;5.976;2023-06-01T00:40:19;102146.38;;;11.40;82.88
66887;BME280;67239;51.680;5.976;2023-06-01T00:43:04;102157.03;;;11.34;83.24
66887;BME280;67239;51.680;5.976;2023-06-01T00:45:50;102158.88;;;11.26;83.56
66887;BME280;67239;51.680;5.976;2023-06-01T00:48:35;102152.81;;;11.19;83.75
66887;BME280;67239;51.680;5.976;2023-06-01T00:51:21;102149.38;;;11.12;83.73
66887;BME280;67239;51.680;5.976;2023-06-01T00:54:06;102158.19;;;11.10;84.23
66887;BME280;67239;51.680;5.976;2023-06-01T00:56:53;102159.97;;;11.08;84.18
66887;BME280;67239;51.680;5.976;2023-06-01T00:59:39;102159.13;;;11.06;84.12
66887;BME280;67239;51.680;5.976;2023-06-01T01:02:24;102168.88;;;10.96;84.46
66887;BME280;67239;51.680;5.976;2023-06-01T01:05:10;102166.31;;;10.93;84.79
66887;BME280;67239;51.680;5.976;2023-06-01T01:08:24;102168.94;;;10.91;84.67
66887;BME280;67239;51.680;5.976;2023-06-01T01:11:20;102160.22;;;10.83;84.95
66887;BME280;67239;51.680;5.976;2023-06-01T01:14:17;102167.38;;;10.73;85.34
66887;BME280;67239;51.680;5.976;2023-06-01T01:17:13;102173.53;;;10.70;85.38
66887;BME280;67239;51.680;5.976;2023-06-01T01:20:13;102173.59;;;10.67;85.50
66887;BME280;67239;51.680;5.976;2023-06-01T01:23:38;102180.69;;;10.61;86.02
66887;BME280;67239;51.680;5.976;2023-06-01T01:29:48;102173.78;;;10.46;86.31
66887;BME280;67239;51.680;5.976;2023-06-01T01:32:37;102177.28;;;10.46;86.24
66887;BME280;67239;51.680;5.976;2023-06-01T01:35:27;102183.41;;;10.50;86.58
66887;BME280;67239;51.680;5.976;2023-06-01T01:38:14;102176.38;;;10.50;86.38
66887;BME280;67239;51.680;5.976;2023-06-01T01:41:00;102172.81;;;10.54;86.06
66887;BME280;67239;51.680;5.976;2023-06-01T01:43:45;102173.75;;;10.47;86.01
66887;BME280;67239;51.680;5.976;2023-06-01T01:49:41;102174.66;;;10.48;86.09
66887;BME280;67239;51.680;5.976;2023-06-01T01:52:34;102181.63;;;10.49;86.17
66887;BME280;67239;51.680;5.976;2023-06-01T01:55:26;102176.31;;;10.56;86.27
66887;BME280;67239;51.680;5.976;2023-06-01T01:58:12;102175.44;;;10.54;85.80
66887;BME280;67239;51.680;5.976;2023-06-01T02:00:58;102180.75;;;10.51;85.99
66887;BME280;67239;51.680;5.976;2023-06-01T02:03:44;102180.81;;;10.47;86.19
66887;BME280;67239;51.680;5.976;2023-06-01T02:06:30;102179.00;;;10.50;86.19
66887;BME280;67239;51.680;5.976;2023-06-01T02:09:17;102182.53;;;10.49;86.15
66887;BME280;67239;51.680;5.976;2023-06-01T02:12:03;102177.25;;;10.49;86.10
66887;BME280;67239;51.680;5.976;2023-06-01T02:14:49;102178.16;;;10.47;86.20
66887;BME280;67239;51.680;5.976;2023-06-01T02:17:35;102171.19;;;10.41;86.61
66887;BME280;67239;51.680;5.976;2023-06-01T02:20:22;102177.22;;;10.51;86.86
66887;BME280;67239;51.680;5.976;2023-06-01T02:23:08;102175.44;;;10.54;86.39
66887;BME280;67239;51.680;5.976;2023-06-01T02:25:53;102175.34;;;10.64;86.08
66887;BME280;67239;51.680;5.976;2023-06-01T02:28:39;102172.72;;;10.65;85.76
66887;BME280;67239;51.680;5.976;2023-06-01T02:31:34;102178.03;;;10.61;85.72
66887;BME280;67239;51.680;5.976;2023-06-01T02:34:21;102172.75;;;10.59;85.62
66887;BME280;67239;51.680;5.976;2023-06-01T02:37:07;102167.47;;;10.62;85.83
66887;BME280;67239;51.680;5.976;2023-06-01T02:39:52;102167.41;;;10.68;85.69
66887;BME280;67239;51.680;5.976;2023-06-01T02:42:39;102168.25;;;10.70;85.80
66887;BME280;67239;51.680;5.976;2023-06-01T02:45:24;102170.84;;;10.75;84.71
66887;BME280;67239;51.680;5.976;2023-06-01T02:48:09;102168.25;;;10.74;84.53
66887;BME280;67239;51.680;5.976;2023-06-01T02:50:56;102166.59;;;10.63;84.90
66887;BME280;67239;51.680;5.976;2023-06-01T02:53:41;102174.50;;;10.63;85.38
66887;BME280;67239;51.680;5.976;2023-06-01T02:56:30;102172.75;;;10.62;84.94
66887;BME280;67239;51.680;5.976;2023-06-01T02:59:27;102171.00;;;10.61;84.98
66887;BME280;67239;51.680;5.976;2023-06-01T03:02:17;102168.34;;;10.63;84.64
66887;BME280;67239;51.680;5.976;2023-06-01T03:05:03;102164.84;;;10.59;84.41
66887;BME280;67239;51.680;5.976;2023-06-01T03:07:51;102165.75;;;10.56;84.80
66887;BME280;67239;51.680;5.976;2023-06-01T03:10:42;102159.66;;;10.51;84.88
66887;BME280;67239;51.680;5.976;2023-06-01T03:13:30;102163.19;;;10.50;84.95
66887;BME280;67239;51.680;5.976;2023-06-01T03:16:15;102162.31;;;10.51;85.28
66887;BME280;67239;51.680;5.976;2023-06-01T03:19:17;102168.38;;;10.60;85.05
66887;BME280;67239;51.680;5.976;2023-06-01T03:22:06;102165.75;;;10.60;85.18
66887;BME280;67239;51.680;5.976;2023-06-01T03:24:51;102167.44;;;10.65;84.68
66887;BME280;67239;51.680;5.976;2023-06-01T03:27:44;102163.94;;;10.63;84.81
66887;BME280;67239;51.680;5.976;2023-06-01T03:30:31;102166.47;;;10.76;84.29
66887;BME280;67239;51.680;5.976;2023-06-01T03:33:16;102162.97;;;10.74;83.76
66887;BME280;67239;51.680;5.976;2023-06-01T03:36:02;102157.72;;;10.72;83.65
66887;BME280;67239;51.680;5.976;2023-06-01T03:38:48;102154.19;;;10.73;83.65
66887;BME280;67239;51.680;5.976;2023-06-01T03:41:35;102155.94;;;10.72;83.46
66887;BME280;67239;51.680;5.976;2023-06-01T03:44:22;102157.72;;;10.70;83.17
66887;BME280;67239;51.680;5.976;2023-06-01T03:47:07;102165.66;;;10.69;83.06
66887;BME280;67239;51.680;5.976;2023-06-01T03:49:53;102160.44;;;10.64;83.49
66887;BME280;67239;51.680;5.976;2023-06-01T03:52:39;102164.75;;;10.71;83.42
66887;BME280;67239;51.680;5.976;2023-06-01T03:55:24;102164.75;;;10.68;83.38
66887;BME280;67239;51.680;5.976;2023-06-01T03:58:20;102163.88;;;10.69;83.42
66887;BME280;67239;51.680;5.976;2023-06-01T04:01:05;102168.22;;;10.77;83.78
66887;BME280;67239;51.680;5.976;2023-06-01T04:03:53;102167.28;;;10.82;83.14
66887;BME280;67239;51.680;5.976;2023-06-01T04:06:38;102165.50;;;10.86;82.60
66887;BME280;67239;51.680;5.976;2023-06-01T04:09:23;102169.03;;;10.83;82.28
66887;BME280;67239;51.680;5.976;2023-06-01T04:12:09;102176.94;;;10.85;81.84
66887;BME280;67239;51.680;5.976;2023-06-01T04:14:55;102165.53;;;10.81;81.74
66887;BME280;67239;51.680;5.976;2023-06-01T04:17:42;102170.84;;;10.75;81.45
66887;BME280;67239;51.680;5.976;2023-06-01T04:20:28;102171.78;;;10.69;82.27
66887;BME280;67239;51.680;5.976;2023-06-01T04:23:15;102170.94;;;10.67;82.53
66887;BME280;67239;51.680;5.976;2023-06-01T04:26:01;102169.09;;;10.74;82.58
66887;BME280;67239;51.680;5.976;2023-06-01T04:28:48;102169.06;;;10.79;82.25
66887;BME280;67239;51.680;5.976;2023-06-01T04:31:34;102170.81;;;10.81;81.95
66887;BME280;67239;51.680;5.976;2023-06-01T04:34:19;102168.06;;;10.89;81.90
66887;BME280;67239;51.680;5.976;2023-06-01T04:37:06;102166.31;;;10.93;81.38
66887;BME280;67239;51.680;5.976;2023-06-01T04:39:51;102167.13;;;10.98;80.94
66887;BME280;67239;51.680;5.976;2023-06-01T04:42:41;102177.59;;;11.06;80.76
66887;BME280;67239;51.680;5.976;2023-06-01T04:45:27;102174.94;;;11.04;81.04
66887;BME280;67239;51.680;5.976;2023-06-01T04:48:20;102172.25;;;11.10;81.17
66887;BME280;67239;51.680;5.976;2023-06-01T04:51:18;102177.41;;;11.23;80.77
66887;BME280;67239;51.680;5.976;2023-06-01T04:54:08;102182.66;;;11.24;80.55
66887;BME280;67239;51.680;5.976;2023-06-01T04:56:54;102176.50;;;11.25;80.33
66887;BME280;67239;51.680;5.976;2023-06-01T04:59:40;102187.84;;;11.30;80.38
66887;BME280;67239;51.680;5.976;2023-06-01T05:02:28;102179.03;;;11.33;80.06
66887;BME280;67239;51.680;5.976;2023-06-01T05:05:14;102171.03;;;11.39;79.90
66887;BME280;67239;51.680;5.976;2023-06-01T05:08:02;102175.41;;;11.42;79.46
66887;BME280;67239;51.680;5.976;2023-06-01T05:10:47;102182.47;;;11.41;79.73
66887;BME280;67239;51.680;5.976;2023-06-01T05:13:37;102177.91;;;11.51;78.40
66887;BME280;67239;51.680;5.976;2023-06-01T05:16:24;102180.69;;;11.42;79.21
66887;BME280;67239;51.680;5.976;2023-06-01T05:19:09;102177.16;;;11.43;78.69
66887;BME280;67239;51.680;5.976;2023-06-01T05:21:56;102184.16;;;11.45;78.72
66887;BME280;67239;51.680;5.976;2023-06-01T05:24:42;102184.09;;;11.50;78.01
66887;BME280;67239;51.680;5.976;2023-06-01T05:27:27;102179.72;;;11.47;78.18
66887;BME280;67239;51.680;5.976;2023-06-01T05:30:13;102171.72;;;11.55;77.82
66887;BME280;67239;51.680;5.976;2023-06-01T05:33:01;102176.91;;;11.63;77.71
66887;BME280;67239;51.680;5.976;2023-06-01T05:35:47;102172.34;;;11.73;76.65
66887;BME280;67239;51.680;5.976;2023-06-01T05:38:36;102169.72;;;11.73;76.95
66887;BME280;67239;51.680;5.976;2023-06-01T05:41:22;102179.41;;;11.72;76.77
66887;BME280;67239;51.680;5.976;2023-06-01T05:44:07;102184.53;;;11.83;75.91
66887;BME280;67239;51.680;5.976;2023-06-01T05:46:55;102168.69;;;11.85;76.00
66887;BME280;67239;51.680;5.976;2023-06-01T05:49:40;102182.72;;;11.87;75.66
66887;BME280;67239;51.680;5.976;2023-06-01T05:52:26;102187.19;;;11.83;75.69
66887;BME280;67239;51.680;5.976;2023-06-01T05:55:11;102184.47;;;11.88;75.04
66887;BME280;67239;51.680;5.976;2023-06-01T05:57:57;102185.44;;;11.82;75.65
66887;BME280;67239;51.680;5.976;2023-06-01T06:00:42;102184.50;;;11.86;75.13
66887;BME280;67239;51.680;5.976;2023-06-01T06:03:27;102187.06;;;11.94;75.10
66887;BME280;67239;51.680;5.976;2023-06-01T06:06:13;102183.44;;;12.01;74.48
66887;BME280;67239;51.680;5.976;2023-06-01T06:08:59;102177.09;;;12.13;75.12
66887;BME280;67239;51.680;5.976;2023-06-01T06:11:44;102177.19;;;12.60;73.33
66887;BME280;67239;51.680;5.976;2023-06-01T06:14:29;102183.25;;;12.67;72.64
66887;BME280;67239;51.680;5.976;2023-06-01T06:17:15;102188.72;;;12.57;72.94
66887;BME280;67239;51.680;5.976;2023-06-01T06:20:00;102189.63;;;12.56;72.72
66887;BME280;67239;51.680;5.976;2023-06-01T06:22:49;102188.59;;;12.64;72.48
66887;BME280;67239;51.680;5.976;2023-06-01T06:25:36;102194.56;;;12.77;71.61
66887;BME280;67239;51.680;5.976;2023-06-01T06:28:21;102179.19;;;12.96;70.46
66887;BME280;67239;51.680;5.976;2023-06-01T06:31:08;102184.59;;;12.91;70.01
66887;BME280;67239;51.680;5.976;2023-06-01T06:33:53;102177.34;;;13.01;69.76
66887;BME280;67239;51.680;5.976;2023-06-01T06:36:39;102186.28;;;12.95;70.04
66887;BME280;67239;51.680;5.976;2023-06-01T06:39:24;102186.34;;;12.92;70.41
66887;BME280;67239;51.680;5.976;2023-06-01T06:42:10;102177.44;;;12.96;69.98
66887;BME280;67239;51.680;5.976;2023-06-01T06:44:55;102183.56;;;12.98;70.17
66887;BME280;67239;51.680;5.976;2023-06-01T06:47:42;102180.94;;;12.97;70.82
66887;BME280;67239;51.680;5.976;2023-06-01T06:50:30;102184.34;;;13.03;70.31
66887;BME280;67239;51.680;5.976;2023-06-01T06:53:16;102180.63;;;13.14;69.70
66887;BME280;67239;51.680;5.976;2023-06-01T06:56:03;102189.44;;;13.16;69.13
66887;BME280;67239;51.680;5.976;2023-06-01T06:58:48;102189.47;;;13.13;69.00
66887;BME280;67239;51.680;5.976;2023-06-01T07:01:50;102191.00;;;13.25;68.93
66887;BME280;67239;51.680;5.976;2023-06-01T07:04:35;102186.09;;;13.51;68.21
66887;BME280;67239;51.680;5.976;2023-06-01T07:07:21;102189.72;;;13.88;67.34
66887;BME280;67239;51.680;5.976;2023-06-01T07:10:06;102187.69;;;13.98;67.68
66887;BME280;67239;51.680;5.976;2023-06-01T07:12:52;102190.66;;;14.23;67.35
66887;BME280;67239;51.680;5.976;2023-06-01T07:15:37;102185.03;;;14.36;65.88
66887;BME280;67239;51.680;5.976;2023-06-01T07:18:23;102198.06;;;14.45;65.73
66887;BME280;67239;51.680;5.976;2023-06-01T07:21:08;102183.78;;;14.51;64.34
66887;BME280;67239;51.680;5.976;2023-06-01T07:23:53;102191.41;;;14.28;64.61
66887;BME280;67239;51.680;5.976;2023-06-01T07:26:38;102188.50;;;14.02;64.89
66887;BME280;67239;51.680;5.976;2023-06-01T07:29:23;102190.63;;;13.86;65.32
66887;BME280;67239;51.680;5.976;2023-06-01T07:32:09;102184.44;;;13.87;65.84
66887;BME280;67239;51.680;5.976;2023-06-01T07:34:55;102186.75;;;14.01;64.96
66887;BME280;67239;51.680;5.976;2023-06-01T07:37:43;102181.72;;;14.27;64.80
66887;BME280;67239;51.680;5.976;2023-06-01T07:40:29;102177.50;;;14.55;64.67
66887;BME280;67239;51.680;5.976;2023-06-01T07:43:17;102184.84;;;14.80;64.90
66887;BME280;67239;51.680;5.976;2023-06-01T07:46:02;102187.69;;;15.05;63.74
66887;BME280;67239;51.680;5.976;2023-06-01T07:48:48;102183.88;;;15.15;62.42
66887;BME280;67239;51.680;5.976;2023-06-01T07:51:33;102181.22;;;15.15;61.17
66887;BME280;67239;51.680;5.976;2023-06-01T07:54:19;102186.28;;;14.91;61.87
66887;BME280;67239;51.680;5.976;2023-06-01T07:57:04;102189.91;;;14.89;61.91
66887;BME280;67239;51.680;5.976;2023-06-01T07:59:50;102181.97;;;14.87;61.39
66887;BME280;67239;51.680;5.976;2023-06-01T08:02:36;102177.72;;;14.82;61.73
66887;BME280;67239;51.680;5.976;2023-06-01T08:05:22;102180.50;;;14.75;61.30
66887;BME280;67239;51.680;5.976;2023-06-01T08:08:07;102184.19;;;14.71;62.34
66887;BME280;67239;51.680;5.976;2023-06-01T08:10:53;102175.13;;;14.79;62.11
66887;BME280;67239;51.680;5.976;2023-06-01T08:13:38;102189.56;;;15.01;61.63
66887;BME280;67239;51.680;5.976;2023-06-01T08:16:24;102184.97;;;15.08;61.29
66887;BME280;67239;51.680;5.976;2023-06-01T08:19:11;102178.63;;;15.12;61.11
66887;BME280;67239;51.680;5.976;2023-06-01T08:21:57;102183.78;;;15.18;60.52
66887;BME280;67239;51.680;5.976;2023-06-01T08:24:43;102178.63;;;15.14;60.20
66887;BME280;67239;51.680;5.976;2023-06-01T08:27:30;102179.13;;;15.27;60.60
66887;BME280;67239;51.680;5.976;2023-06-01T08:30:15;102167.13;;;15.43;60.68
66887;BME280;67239;51.680;5.976;2023-06-01T08:33:01;102171.78;;;15.65;61.06
66887;BME280;67239;51.680;5.976;2023-06-01T08:35:47;102160.53;;;15.87;59.13
66887;BME280;67239;51.680;5.976;2023-06-01T08:38:36;102163.31;;;15.82;58.60
66887;BME280;67239;51.680;5.976;2023-06-01T08:41:40;102159.53;;;15.91;59.17
66887;BME280;67239;51.680;5.976;2023-06-01T08:44:39;102166.03;;;16.09;57.60
66887;BME280;67239;51.680;5.976;2023-06-01T08:47:27;102163.63;;;16.01;57.66
66887;BME280;67239;51.680;5.976;2023-06-01T08:50:13;102154.91;;;15.96;58.09
66887;BME280;67239;51.680;5.976;2023-06-01T08:53:01;102160.09;;;16.01;57.93
66887;BME280;67239;51.680;5.976;2023-06-01T08:55:54;102148.44;;;16.05;57.87
66887;BME280;67239;51.680;5.976;2023-06-01T08:58:43;102144.66;;;16.12;57.18
66887;BME280;67239;51.680;5.976;2023-06-01T09:01:29;102148.97;;;16.16;58.08
66887;BME280;67239;51.680;5.976;2023-06-01T09:04:14;102145.09;;;16.25;56.70
66887;BME280;67239;51.680;5.976;2023-06-01T09:07:02;102144.84;;;16.33;57.19
66887;BME280;67239;51.680;5.976;2023-06-01T09:09:47;102141.13;;;16.38;56.14
66887;BME280;67239;51.680;5.976;2023-06-01T09:12:33;102144.28;;;16.50;55.93
66887;BME280;67239;51.680;5.976;2023-06-01T09:15:19;102137.28;;;16.47;56.30
66887;BME280;67239;51.680;5.976;2023-06-01T09:18:08;102135.97;;;16.59;56.94
66887;BME280;67239;51.680;5.976;2023-06-01T09:21:11;102132.72;;;16.76;57.01
66887;BME280;67239;51.680;5.976;2023-06-01T09:24:17;102131.97;;;16.98;56.51
66887;BME280;67239;51.680;5.976;2023-06-01T09:27:04;102131.22;;;17.18;56.15
66887;BME280;67239;51.680;5.976;2023-06-01T09:29:54;102131.31;;;17.38;55.04
66887;BME280;67239;51.680;5.976;2023-06-01T09:32:40;102131.44;;;17.35;54.24
66887;BME280;67239;51.680;5.976;2023-06-01T09:35:47;102124.44;;;17.33;55.24
66887;BME280;67239;51.680;5.976;2023-06-01T09:38:34;102124.03;;;17.44;54.95
66887;BME280;67239;51.680;5.976;2023-06-01T09:41:19;102116.22;;;17.61;53.94
66887;BME280;67239;51.680;5.976;2023-06-01T09:44:06;102112.16;;;17.75;54.08
66887;BME280;67239;51.680;5.976;2023-06-01T09:46:59;102116.91;;;17.89;51.93
66887;BME280;67239;51.680;5.976;2023-06-01T09:49:50;102116.66;;;17.95;52.26
66887;BME280;67239;51.680;5.976;2023-06-01T09:52:35;102115.09;;;17.89;52.36
66887;BME280;67239;51.680;5.976;2023-06-01T09:55:21;102112.25;;;17.94;51.23
66887;BME280;67239;51.680;5.976;2023-06-01T09:58:20;102107.59;;;17.77;52.36
66887;BME280;67239;51.680;5.976;2023-06-01T10:01:07;102114.25;;;17.89;52.63
66887;BME280;67239;51.680;5.976;2023-06-01T10:03:56;102105.94;;;18.19;50.65
66887;BME280;67239;51.680;5.976;2023-06-01T10:06:45;102105.75;;;18.01;51.82
66887;BME280;67239;51.680;5.976;2023-06-01T10:09:31;102110.31;;;17.99;52.16
66887;BME280;67239;51.680;5.976;2023-06-01T10:12:21;102106.13;;;18.14;51.73
66887;BME280;67239;51.680;5.976;2023-06-01T10:15:08;102106.53;;;18.25;50.57
66887;BME280;67239;51.680;5.976;2023-06-01T10:18:14;102105.06;;;18.39;50.92
66887;BME280;67239;51.680;5.976;2023-06-01T10:21:03;102095.78;;;18.47;49.80
66887;BME280;67239;51.680;5.976;2023-06-01T10:23:51;102093.41;;;18.41;50.49
66887;BME280;67239;51.680;5.976;2023-06-01T10:26:42;102089.19;;;18.36;51.08
66887;BME280;67239;51.680;5.976;2023-06-01T10:29:37;102083.47;;;18.45;51.64
66887;BME280;67239;51.680;5.976;2023-06-01T10:32:45;102087.69;;;18.70;51.81
66887;BME280;67239;51.680;5.976;2023-06-01T10:38:28;102092.34;;;18.85;50.21
66887;BME280;67239;51.680;5.976;2023-06-01T10:41:28;102083.94;;;18.95;49.40
66887;BME280;67239;51.680;5.976;2023-06-01T10:50:08;102091.09;;;19.13;49.00
66887;BME280;67239;51.680;5.976;2023-06-01T10:52:55;102083.50;;;19.23;48.53
66887;BME280;67239;51.680;5.976;2023-06-01T10:55:40;102077.97;;;19.28;50.06
66887;BME280;67239;51.680;5.976;2023-06-01T10:58:26;102076.63;;;19.55;49.29
66887;BME280;67239;51.680;5.976;2023-06-01T11:01:18;102082.81;;;19.75;47.78
66887;BME280;67239;51.680;5.976;2023-06-01T11:04:06;102073.47;;;19.84;47.61
66887;BME280;67239;51.680;5.976;2023-06-01T11:06:52;102079.16;;;19.95;46.23
66887;BME280;67239;51.680;5.976;2023-06-01T11:09:44;102076.28;;;19.81;47.92
66887;BME280;67239;51.680;5.976;2023-06-01T11:18:55;102059.22;;;20.36;46.05
66887;BME280;67239;51.680;5.976;2023-06-01T11:21:45;102060.97;;;20.37;46.59
66887;BME280;67239;51.680;5.976;2023-06-01T11:24:32;102056.31;;;20.41;46.58
66887;BME280;67239;51.680;5.976;2023-06-01T11:27:22;102058.56;;;20.66;47.07
66887;BME280;67239;51.680;5.976;2023-06-01T11:30:08;102043.38;;;20.83;44.80
66887;BME280;67239;51.680;5.976;2023-06-01T11:32:55;102045.31;;;20.81;45.78
66887;BME280;67239;51.680;5.976;2023-06-01T11:35:43;102048.50;;;20.87;44.93
66887;BME280;67239;51.680;5.976;2023-06-01T11:38:39;102047.03;;;20.98;45.67
66887;BME280;67239;51.680;5.976;2023-06-01T11:41:28;102031.50;;;21.20;44.00
66887;BME280;67239;51.680;5.976;2023-06-01T11:44:14;102036.84;;;21.20;43.91
66887;BME280;67239;51.680;5.976;2023-06-01T11:46:59;102041.69;;;21.14;44.90
66887;BME280;67239;51.680;5.976;2023-06-01T11:49:48;102038.75;;;21.18;44.86
66887;BME280;67239;51.680;5.976;2023-06-01T11:52:35;102028.53;;;21.25;44.99
66887;BME280;67239;51.680;5.976;2023-06-01T11:55:20;102028.28;;;21.30;43.81
66887;BME280;67239;51.680;5.976;2023-06-01T11:58:06;102030.00;;;21.31;44.13
66887;BME280;67239;51.680;5.976;2023-06-01T12:00:53;102034.31;;;21.33;43.43
66887;BME280;67239;51.680;5.976;2023-06-01T12:03:48;102026.22;;;21.35;44.33
66887;BME280;67239;51.680;5.976;2023-06-01T12:06:34;102021.53;;;21.38;43.76
66887;BME280;67239;51.680;5.976;2023-06-01T12:09:20;102015.13;;;21.41;44.73
66887;BME280;67239;51.680;5.976;2023-06-01T12:12:07;102024.00;;;21.57;42.85
66887;BME280;67239;51.680;5.976;2023-06-01T12:14:54;102019.00;;;21.51;43.37
66887;BME280;67239;51.680;5.976;2023-06-01T12:17:46;102021.31;;;21.57;44.57
66887;BME280;67239;51.680;5.976;2023-06-01T12:20:42;102020.59;;;21.86;43.30
66887;BME280;67239;51.680;5.976;2023-06-01T12:23:28;102015.91;;;21.90;42.81
66887;BME280;67239;51.680;5.976;2023-06-01T12:26:14;102009.44;;;21.78;43.50
66887;BME280;67239;51.680;5.976;2023-06-01T12:28:59;102007.34;;;21.83;42.48
66887;BME280;67239;51.680;5.976;2023-06-01T12:31:54;102011.34;;;21.76;43.85
66887;BME280;67239;51.680;5.976;2023-06-01T12:34:40;102015.13;;;21.87;43.48
66887;BME280;67239;51.680;5.976;2023-06-01T12:37:33;102005.31;;;22.02;43.52
66887;BME280;67239;51.680;5.976;2023-06-01T12:40:22;102003.78;;;22.13;43.71
66887;BME280;67239;51.680;5.976;2023-06-01T12:43:18;102014.34;;;22.30;42.60
66887;BME280;67239;51.680;5.976;2023-06-01T12:46:06;102010.31;;;22.38;41.98
66887;BME280;67239;51.680;5.976;2023-06-01T12:49:11;101999.69;;;22.36;41.45
66887;BME280;67239;51.680;5.976;2023-06-01T12:52:02;102004.91;;;22.23;42.89
66887;BME280;67239;51.680;5.976;2023-06-01T12:54:47;102001.50;;;22.21;41.61
66887;BME280;67239;51.680;5.976;2023-06-01T12:57:36;101998.41;;;22.13;42.89
66887;BME280;67239;51.680;5.976;2023-06-01T13:00:25;101987.13;;;22.22;42.66
66887;BME280;67239;51.680;5.976;2023-06-01T13:03:31;101982.31;;;22.27;42.22
66887;BME280;67239;51.680;5.976;2023-06-01T13:06:18;101989.28;;;22.30;41.90
66887;BME280;67239;51.680;5.976;2023-06-01T13:09:04;101990.94;;;22.32;41.88
66887;BME280;67239;51.680;5.976;2023-06-01T13:11:51;101977.72;;;22.44;41.42
66887;BME280;67239;51.680;5.976;2023-06-01T13:14:37;101981.66;;;22.53;41.96
66887;BME280;67239;51.680;5.976;2023-06-01T13:17:22;101984.84;;;22.59;41.69
66887;BME280;67239;51.680;5.976;2023-06-01T13:20:07;101979.47;;;22.59;40.79
66887;BME280;67239;51.680;5.976;2023-06-01T13:22:55;101974.25;;;22.56;40.67
66887;BME280;67239;51.680;5.976;2023-06-01T13:25:40;101974.75;;;22.63;41.71
66887;BME280;67239;51.680;5.976;2023-06-01T13:28:27;101966.88;;;22.74;41.54
66887;BME280;67239;51.680;5.976;2023-06-01T13:31:12;101971.44;;;22.87;40.81
66887;BME280;67239;51.680;5.976;2023-06-01T13:33:58;101959.94;;;22.85;40.72
66887;BME280;67239;51.680;5.976;2023-06-01T13:36:44;101968.84;;;22.85;41.11
66887;BME280;67239;51.680;5.976;2023-06-01T13:39:29;101962.81;;;22.82;40.32
66887;BME280;67239;51.680;5.976;2023-06-01T13:42:18;101964.06;;;22.76;41.19
66887;BME280;67239;51.680;5.976;2023-06-01T13:45:06;101968.81;;;23.00;40.84
66887;BME280;67239;51.680;5.976;2023-06-01T13:47:53;101962.06;;;23.07;40.29
66887;BME280;67239;51.680;5.976;2023-06-01T13:50:40;101962.66;;;22.98;39.74
66887;BME280;67239;51.680;5.976;2023-06-01T13:53:26;101960.59;;;22.88;40.73
66887;BME280;67239;51.680;5.976;2023-06-01T13:56:11;101961.88;;;23.10;40.85
66887;BME280;67239;51.680;5.976;2023-06-01T13:58:58;101958.13;;;23.40;40.02
66887;BME280;67239;51.680;5.976;2023-06-01T14:01:45;101957.78;;;23.32;39.90
66887;BME280;67239;51.680;5.976;2023-06-01T14:04:31;101949.59;;;23.33;40.32
66887;BME280;67239;51.680;5.976;2023-06-01T14:07:18;101955.88;;;23.34;40.37
66887;BME280;67239;51.680;5.976;2023-06-01T14:10:04;101943.53;;;23.44;40.25
66887;BME280;67239;51.680;5.976;2023-06-01T14:12:50;101941.47;;;23.48;39.65
66887;BME280;67239;51.680;5.976;2023-06-01T14:15:36;101936.81;;;23.37;40.09
66887;BME280;67239;51.680;5.976;2023-06-01T14:18:22;101926.59;;;23.29;39.98
66887;BME280;67239;51.680;5.976;2023-06-01T14:21:07;101930.56;;;23.23;40.43
66887;BME280;67239;51.680;5.976;2023-06-01T14:23:54;101927.94;;;23.22;41.11
66887;BME280;67239;51.680;5.976;2023-06-01T14:26:40;101933.47;;;23.33;40.45
66887;BME280;67239;51.680;5.976;2023-06-01T14:29:25;101923.97;;;23.27;40.38
66887;BME280;67239;51.680;5.976;2023-06-01T14:32:10;101929.59;;;23.24;40.30
66887;BME280;67239;51.680;5.976;2023-06-01T14:34:56;101923.91;;;23.29;40.84
66887;BME280;67239;51.680;5.976;2023-06-01T14:37:42;101930.59;;;23.49;41.25
66887;BME280;67239;51.680;5.976;2023-06-01T14:40:34;101923.50;;;23.61;39.34
66887;BME280;67239;51.680;5.976;2023-06-01T14:43:20;101928.97;;;23.34;40.28
66887;BME280;67239;51.680;5.976;2023-06-01T14:46:05;101932.41;;;23.08;40.99
66887;BME280;67239;51.680;5.976;2023-06-01T14:48:50;101925.75;;;22.87;42.02
66887;BME280;67239;51.680;5.976;2023-06-01T14:51:36;101924.69;;;22.89;42.67
66887;BME280;67239;51.680;5.976;2023-06-01T14:54:21;101928.91;;;22.93;42.43
66887;BME280;67239;51.680;5.976;2023-06-01T14:57:21;101929.41;;;22.86;43.18
66887;BME280;67239;51.680;5.976;2023-06-01T15:00:07;101930.38;;;22.70;43.46